sensor_id;sensor_type;location;lat;lon;timestamp;temperature;humidity
59977;DHT22;45837;51.076;3.578;2024-01-15T00:00:00;19.40;54.60
59977;DHT22;45837;51.076;3.578;2024-01-15T00:02:26;19.40;54.60
59977;DHT22;45837;51.076;3.578;2024-01-15T00:04:52;19.40;54.60
59977;DHT22;45837;51.076;3.578;2024-01-15T00:07:18;19.40;54.70
59977;DHT22;45837;51.076;3.578;2024-01-15T00:09:44;19.40;54.60
59977;DHT22;45837;51.076;3.578;2024-01-15T00:12:09;19.40;54.50
59977;DHT22;45837;51.076;3.578;2024-01-15T00:14:35;19.30;54.50
59977;DHT22;45837;51.076;3.578;2024-01-15T00:17:01;19.30;54.70
59977;DHT22;45837;51.076;3.578;2024-01-15T00:19:27;19.30;54.30
59977;DHT22;45837;51.076;3.578;2024-01-15T00:21:53;19.20;54.50
59977;DHT22;45837;51.076;3.578;2024-01-15T00:24:18;19.30;54.50
59977;DHT22;45837;51.076;3.578;2024-01-15T00:26:45;19.30;54.30
59977;DHT22;45837;51.076;3.578;2024-01-15T00:29:10;19.20;54.70
59977;DHT22;45837;51.076;3.578;2024-01-15T00:31:36;19.20;54.40
59977;DHT22;45837;51.076;3.578;2024-01-15T00:34:02;19.20;54.40
59977;DHT22;45837;51.076;3.578;2024-01-15T00:36:28;19.20;54.50
59977;DHT22;45837;51.076;3.578;2024-01-15T00:38:54;19.20;54.40
59977;DHT22;45837;51.076;3.578;2024-01-15T00:41:20;19.20;54.60
59977;DHT22;45837;51.076;3.578;2024-01-15T00:43:46;19.20;54.20
59977;DHT22;45837;51.076;3.578;2024-01-15T00:46:15;19.20;54.30
59977;DHT22;45837;51.076;3.578;2024-01-15T00:48:41;19.10;54.20
59977;DHT22;45837;51.076;3.578;2024-01-15T00:51:07;19.10;54.40
59977;DHT22;45837;51.076;3.578;2024-01-15T00:53:32;19.10;54.60
59977;DHT22;45837;51.076;3.578;2024-01-15T00:55:59;19.10;54.10
59977;DHT22;45837;51.076;3.578;2024-01-15T00:58:26;19.10;54.00
59977;DHT22;45837;51.076;3.578;2024-01-15T01:00:52;19.10;53.80
59977;DHT22;45837;51.076;3.578;2024-01-15T01:03:18;19.10;54.50
59977;DHT22;45837;51.076;3.578;2024-01-15T01:05:44;19.10;54.10
59977;DHT22;45837;51.076;3.578;2024-01-15T01:08:10;19.00;54.10
59977;DHT22;45837;51.076;3.578;2024-01-15T01:10:36;19.00;54.20
59977;DHT22;45837;51.076;3.578;2024-01-15T01:13:02;19.00;53.80
59977;DHT22;45837;51.076;3.578;2024-01-15T01:15:28;19.00;54.00
59977;DHT22;45837;51.076;3.578;2024-01-15T01:17:54;19.00;54.70
59977;DHT22;45837;51.076;3.578;2024-01-15T01:20:20;19.00;54.20
59977;DHT22;45837;51.076;3.578;2024-01-15T01:22:46;19.00;54.90
59977;DHT22;45837;51.076;3.578;2024-01-15T01:25:12;19.00;54.00
59977;DHT22;45837;51.076;3.578;2024-01-15T01:27:37;19.00;53.90
59977;DHT22;45837;51.076;3.578;2024-01-15T01:30:04;19.00;54.50
59977;DHT22;45837;51.076;3.578;2024-01-15T01:32:30;19.00;53.80
59977;DHT22;45837;51.076;3.578;2024-01-15T01:34:55;19.00;54.10
59977;DHT22;45837;51.076;3.578;2024-01-15T01:37:21;18.90;54.10
59977;DHT22;45837;51.076;3.578;2024-01-15T01:39:47;18.90;54.20
59977;DHT22;45837;51.076;3.578;2024-01-15T01:42:13;18.90;54.20
59977;DHT22;45837;51.076;3.578;2024-01-15T01:44:39;18.90;54.20
59977;DHT22;45837;51.076;3.578;2024-01-15T01:47:05;18.90;54.00
59977;DHT22;45837;51.076;3.578;2024-01-15T01:49:31;18.90;53.70
59977;DHT22;45837;51.076;3.578;2024-01-15T01:51:59;18.80;53.70
59977;DHT22;45837;51.076;3.578;2024-01-15T01:54:28;18.90;53.60
59977;DHT22;45837;51.076;3.578;2024-01-15T01:56:54;18.80;53.50
59977;DHT22;45837;51.076;3.578;2024-01-15T01:59:21;18.80;53.70
59977;DHT22;45837;51.076;3.578;2024-01-15T02:01:49;18.80;53.50
59977;DHT22;45837;51.076;3.578;2024-01-15T02:04:16;18.80;53.70
59977;DHT22;45837;51.076;3.578;2024-01-15T02:06:42;18.80;53.60
59977;DHT22;45837;51.076;3.578;2024-01-15T02:09:09;18.80;54.10
59977;DHT22;45837;51.076;3.578;2024-01-15T02:11:36;18.80;53.60
59977;DHT22;45837;51.076;3.578;2024-01-15T02:14:02;18.80;54.10
59977;DHT22;45837;51.076;3.578;2024-01-15T02:16:28;18.80;53.60
59977;DHT22;45837;51.076;3.578;2024-01-15T02:18:54;18.80;54.00
59977;DHT22;45837;51.076;3.578;2024-01-15T02:21:20;18.70;53.80
59977;DHT22;45837;51.076;3.578;2024-01-15T02:23:46;18.70;53.80
59977;DHT22;45837;51.076;3.578;2024-01-15T02:26:12;18.70;53.80
59977;DHT22;45837;51.076;3.578;2024-01-15T02:28:38;18.70;53.90
59977;DHT22;45837;51.076;3.578;2024-01-15T02:31:04;18.70;53.60
59977;DHT22;45837;51.076;3.578;2024-01-15T02:33:30;18.70;53.80
59977;DHT22;45837;51.076;3.578;2024-01-15T02:35:55;18.70;53.80
59977;DHT22;45837;51.076;3.578;2024-01-15T02:38:21;18.70;54.10
59977;DHT22;45837;51.076;3.578;2024-01-15T02:40:47;18.70;53.50
59977;DHT22;45837;51.076;3.578;2024-01-15T02:43:13;18.70;53.90
59977;DHT22;45837;51.076;3.578;2024-01-15T02:45:40;18.60;53.60
59977;DHT22;45837;51.076;3.578;2024-01-15T02:48:06;18.60;53.70
59977;DHT22;45837;51.076;3.578;2024-01-15T02:50:32;18.60;53.70
59977;DHT22;45837;51.076;3.578;2024-01-15T02:52:58;18.60;53.70
59977;DHT22;45837;51.076;3.578;2024-01-15T02:55:24;18.60;53.70
59977;DHT22;45837;51.076;3.578;2024-01-15T02:57:50;18.60;53.70
59977;DHT22;45837;51.076;3.578;2024-01-15T03:00:16;18.60;53.80
59977;DHT22;45837;51.076;3.578;2024-01-15T03:02:45;18.60;53.50
59977;DHT22;45837;51.076;3.578;2024-01-15T03:05:10;18.60;53.70
59977;DHT22;45837;51.076;3.578;2024-01-15T03:07:36;18.60;53.50
59977;DHT22;45837;51.076;3.578;2024-01-15T03:10:02;18.60;53.70
59977;DHT22;45837;51.076;3.578;2024-01-15T03:12:28;18.60;53.60
59977;DHT22;45837;51.076;3.578;2024-01-15T03:14:54;18.50;53.60
59977;DHT22;45837;51.076;3.578;2024-01-15T03:17:20;18.50;53.70
59977;DHT22;45837;51.076;3.578;2024-01-15T03:19:46;18.50;53.60
59977;DHT22;45837;51.076;3.578;2024-01-15T03:22:12;18.50;53.50
59977;DHT22;45837;51.076;3.578;2024-01-15T03:24:37;18.50;53.70
59977;DHT22;45837;51.076;3.578;2024-01-15T03:27:03;18.50;53.70
59977;DHT22;45837;51.076;3.578;2024-01-15T03:29:29;18.50;53.50
59977;DHT22;45837;51.076;3.578;2024-01-15T03:31:55;18.50;53.80
59977;DHT22;45837;51.076;3.578;2024-01-15T03:34:21;18.50;53.40
59977;DHT22;45837;51.076;3.578;2024-01-15T03:36:47;18.50;53.50
59977;DHT22;45837;51.076;3.578;2024-01-15T03:39:13;18.40;53.60
59977;DHT22;45837;51.076;3.578;2024-01-15T03:41:39;18.40;53.40
59977;DHT22;45837;51.076;3.578;2024-01-15T03:44:05;18.40;53.40
59977;DHT22;45837;51.076;3.578;2024-01-15T03:46:31;18.40;53.30
59977;DHT22;45837;51.076;3.578;2024-01-15T03:48:57;18.40;53.10
59977;DHT22;45837;51.076;3.578;2024-01-15T03:51:23;18.40;53.60
59977;DHT22;45837;51.076;3.578;2024-01-15T03:53:49;18.40;53.50
59977;DHT22;45837;51.076;3.578;2024-01-15T03:56:15;18.40;53.40
59977;DHT22;45837;51.076;3.578;2024-01-15T03:58:40;18.40;54.20
59977;DHT22;45837;51.076;3.578;2024-01-15T04:01:10;18.40;53.60
59977;DHT22;45837;51.076;3.578;2024-01-15T04:03:36;18.30;53.20
59977;DHT22;45837;51.076;3.578;2024-01-15T04:06:03;18.30;53.20
59977;DHT22;45837;51.076;3.578;2024-01-15T04:08:29;18.30;53.10
59977;DHT22;45837;51.076;3.578;2024-01-15T04:10:55;18.30;53.00
59977;DHT22;45837;51.076;3.578;2024-01-15T04:13:22;18.30;53.30
59977;DHT22;45837;51.076;3.578;2024-01-15T04:15:48;18.30;52.90
59977;DHT22;45837;51.076;3.578;2024-01-15T04:18:16;18.30;53.30
59977;DHT22;45837;51.076;3.578;2024-01-15T04:20:43;18.30;52.80
59977;DHT22;45837;51.076;3.578;2024-01-15T04:23:09;18.30;53.00
59977;DHT22;45837;51.076;3.578;2024-01-15T04:25:35;18.30;53.20
59977;DHT22;45837;51.076;3.578;2024-01-15T04:28:01;18.20;53.10
59977;DHT22;45837;51.076;3.578;2024-01-15T04:30:27;18.20;53.30
59977;DHT22;45837;51.076;3.578;2024-01-15T04:32:52;18.20;53.10
59977;DHT22;45837;51.076;3.578;2024-01-15T04:35:18;18.20;53.10
59977;DHT22;45837;51.076;3.578;2024-01-15T04:37:44;18.20;53.00
59977;DHT22;45837;51.076;3.578;2024-01-15T04:40:10;18.20;53.20
59977;DHT22;45837;51.076;3.578;2024-01-15T04:42:36;18.20;53.40
59977;DHT22;45837;51.076;3.578;2024-01-15T04:45:02;18.20;53.20
59977;DHT22;45837;51.076;3.578;2024-01-15T04:47:29;18.20;52.90
59977;DHT22;45837;51.076;3.578;2024-01-15T04:49:54;18.20;53.40
59977;DHT22;45837;51.076;3.578;2024-01-15T04:52:20;18.20;52.90
59977;DHT22;45837;51.076;3.578;2024-01-15T04:54:46;18.20;53.10
59977;DHT22;45837;51.076;3.578;2024-01-15T04:57:12;18.10;53.00
59977;DHT22;45837;51.076;3.578;2024-01-15T04:59:38;18.10;52.90
59977;DHT22;45837;51.076;3.578;2024-01-15T05:02:04;18.20;53.10
59977;DHT22;45837;51.076;3.578;2024-01-15T05:04:29;18.10;53.10
59977;DHT22;45837;51.076;3.578;2024-01-15T05:06:55;18.10;53.20
59977;DHT22;45837;51.076;3.578;2024-01-15T05:09:21;18.10;53.00
59977;DHT22;45837;51.076;3.578;2024-01-15T05:11:47;18.10;52.80
59977;DHT22;45837;51.076;3.578;2024-01-15T05:14:13;18.10;53.00
59977;DHT22;45837;51.076;3.578;2024-01-15T05:16:46;18.10;53.00
59977;DHT22;45837;51.076;3.578;2024-01-15T05:19:13;18.10;52.70
59977;DHT22;45837;51.076;3.578;2024-01-15T05:21:38;18.10;52.90
59977;DHT22;45837;51.076;3.578;2024-01-15T05:24:04;17.90;53.80
59977;DHT22;45837;51.076;3.578;2024-01-15T05:26:30;18.10;53.10
59977;DHT22;45837;51.076;3.578;2024-01-15T05:28:56;18.10;53.10
59977;DHT22;45837;51.076;3.578;2024-01-15T05:31:22;18.00;52.70
59977;DHT22;45837;51.076;3.578;2024-01-15T05:33:48;18.00;52.90
59977;DHT22;45837;51.076;3.578;2024-01-15T05:36:13;18.00;52.80
59977;DHT22;45837;51.076;3.578;2024-01-15T05:38:39;18.00;52.90
59977;DHT22;45837;51.076;3.578;2024-01-15T05:41:06;18.00;53.10
59977;DHT22;45837;51.076;3.578;2024-01-15T05:43:32;18.00;53.00
59977;DHT22;45837;51.076;3.578;2024-01-15T05:45:57;18.00;53.30
59977;DHT22;45837;51.076;3.578;2024-01-15T05:48:24;18.00;53.60
59977;DHT22;45837;51.076;3.578;2024-01-15T05:50:50;18.10;53.90
59977;DHT22;45837;51.076;3.578;2024-01-15T05:53:15;18.00;53.90
59977;DHT22;45837;51.076;3.578;2024-01-15T05:55:41;18.00;54.20
59977;DHT22;45837;51.076;3.578;2024-01-15T05:58:07;18.10;54.10
59977;DHT22;45837;51.076;3.578;2024-01-15T06:00:33;18.10;54.10
59977;DHT22;45837;51.076;3.578;2024-01-15T06:03:01;18.10;54.30
59977;DHT22;45837;51.076;3.578;2024-01-15T06:05:27;18.20;54.00
59977;DHT22;45837;51.076;3.578;2024-01-15T06:07:53;18.20;54.00
59977;DHT22;45837;51.076;3.578;2024-01-15T06:10:18;18.20;54.40
59977;DHT22;45837;51.076;3.578;2024-01-15T06:12:44;18.30;54.00
59977;DHT22;45837;51.076;3.578;2024-01-15T06:15:10;18.30;54.00
59977;DHT22;45837;51.076;3.578;2024-01-15T06:17:37;18.40;53.50
59977;DHT22;45837;51.076;3.578;2024-01-15T06:20:03;18.40;53.60
59977;DHT22;45837;51.076;3.578;2024-01-15T06:22:29;18.50;53.40
59977;DHT22;45837;51.076;3.578;2024-01-15T06:24:55;18.60;53.40
59977;DHT22;45837;51.076;3.578;2024-01-15T06:27:21;18.70;53.10
59977;DHT22;45837;51.076;3.578;2024-01-15T06:29:47;18.70;53.50
59977;DHT22;45837;51.076;3.578;2024-01-15T06:32:13;18.80;53.50
59977;DHT22;45837;51.076;3.578;2024-01-15T06:34:39;18.90;53.50
59977;DHT22;45837;51.076;3.578;2024-01-15T06:37:05;18.90;53.30
59977;DHT22;45837;51.076;3.578;2024-01-15T06:39:31;19.00;53.10
59977;DHT22;45837;51.076;3.578;2024-01-15T06:41:57;19.10;53.70
59977;DHT22;45837;51.076;3.578;2024-01-15T06:44:23;19.20;53.50
59977;DHT22;45837;51.076;3.578;2024-01-15T06:46:49;19.30;53.10
59977;DHT22;45837;51.076;3.578;2024-01-15T06:49:15;19.30;53.20
59977;DHT22;45837;51.076;3.578;2024-01-15T06:51:41;19.40;52.80
59977;DHT22;45837;51.076;3.578;2024-01-15T06:54:07;19.50;53.00
59977;DHT22;45837;51.076;3.578;2024-01-15T06:56:33;19.60;52.80
59977;DHT22;45837;51.076;3.578;2024-01-15T06:58:59;19.60;52.40
59977;DHT22;45837;51.076;3.578;2024-01-15T07:01:24;19.70;52.10
59977;DHT22;45837;51.076;3.578;2024-01-15T07:03:50;19.80;52.30
59977;DHT22;45837;51.076;3.578;2024-01-15T07:06:16;19.70;51.70
59977;DHT22;45837;51.076;3.578;2024-01-15T07:08:42;19.80;51.60
59977;DHT22;45837;51.076;3.578;2024-01-15T07:11:08;19.80;51.60
59977;DHT22;45837;51.076;3.578;2024-01-15T07:13:36;19.80;50.70
59977;DHT22;45837;51.076;3.578;2024-01-15T07:16:02;19.80;49.90
59977;DHT22;45837;51.076;3.578;2024-01-15T07:18:28;19.80;49.40
59977;DHT22;45837;51.076;3.578;2024-01-15T07:20:54;19.80;49.00
59977;DHT22;45837;51.076;3.578;2024-01-15T07:23:19;19.80;48.50
59977;DHT22;45837;51.076;3.578;2024-01-15T07:25:45;19.80;48.10
59977;DHT22;45837;51.076;3.578;2024-01-15T07:28:11;19.70;48.50
59977;DHT22;45837;51.076;3.578;2024-01-15T07:30:37;19.70;48.00
59977;DHT22;45837;51.076;3.578;2024-01-15T07:33:05;19.70;47.40
59977;DHT22;45837;51.076;3.578;2024-01-15T07:35:31;19.60;47.10
59977;DHT22;45837;51.076;3.578;2024-01-15T07:37:57;19.60;46.80
59977;DHT22;45837;51.076;3.578;2024-01-15T07:40:23;19.60;46.80
59977;DHT22;45837;51.076;3.578;2024-01-15T07:42:51;19.60;46.60
59977;DHT22;45837;51.076;3.578;2024-01-15T07:45:17;19.50;46.20
59977;DHT22;45837;51.076;3.578;2024-01-15T07:47:43;19.50;45.80
59977;DHT22;45837;51.076;3.578;2024-01-15T07:50:09;19.50;45.60
59977;DHT22;45837;51.076;3.578;2024-01-15T07:52:35;19.60;45.60
59977;DHT22;45837;51.076;3.578;2024-01-15T07:55:01;19.50;45.30
59977;DHT22;45837;51.076;3.578;2024-01-15T07:57:29;19.50;45.20
59977;DHT22;45837;51.076;3.578;2024-01-15T07:59:55;19.50;45.40
59977;DHT22;45837;51.076;3.578;2024-01-15T08:02:20;19.50;45.50
59977;DHT22;45837;51.076;3.578;2024-01-15T08:04:47;19.50;45.20
59977;DHT22;45837;51.076;3.578;2024-01-15T08:07:13;19.40;46.00
59977;DHT22;45837;51.076;3.578;2024-01-15T08:09:39;19.40;46.20
59977;DHT22;45837;51.076;3.578;2024-01-15T08:12:05;19.40;46.50
59977;DHT22;45837;51.076;3.578;2024-01-15T08:14:32;19.40;46.70
59977;DHT22;45837;51.076;3.578;2024-01-15T08:16:57;19.40;46.80
59977;DHT22;45837;51.076;3.578;2024-01-15T08:19:24;19.40;46.90
59977;DHT22;45837;51.076;3.578;2024-01-15T08:21:50;19.40;47.00
59977;DHT22;45837;51.076;3.578;2024-01-15T08:24:16;19.40;47.40
59977;DHT22;45837;51.076;3.578;2024-01-15T08:26:43;19.40;47.30
59977;DHT22;45837;51.076;3.578;2024-01-15T08:29:09;19.30;47.80
59977;DHT22;45837;51.076;3.578;2024-01-15T08:31:35;19.30;48.00
59977;DHT22;45837;51.076;3.578;2024-01-15T08:34:01;19.30;47.50
59977;DHT22;45837;51.076;3.578;2024-01-15T08:36:28;19.30;47.60
59977;DHT22;45837;51.076;3.578;2024-01-15T08:38:56;19.30;47.50
59977;DHT22;45837;51.076;3.578;2024-01-15T08:41:22;19.30;47.80
59977;DHT22;45837;51.076;3.578;2024-01-15T08:43:49;19.30;47.80
59977;DHT22;45837;51.076;3.578;2024-01-15T08:46:14;19.20;47.90
59977;DHT22;45837;51.076;3.578;2024-01-15T08:48:40;19.10;48.20
59977;DHT22;45837;51.076;3.578;2024-01-15T08:51:06;19.20;48.10
59977;DHT22;45837;51.076;3.578;2024-01-15T08:53:36;19.20;48.10
59977;DHT22;45837;51.076;3.578;2024-01-15T08:56:02;19.20;48.40
59977;DHT22;45837;51.076;3.578;2024-01-15T08:58:27;19.20;48.80
59977;DHT22;45837;51.076;3.578;2024-01-15T09:00:54;19.10;48.40
59977;DHT22;45837;51.076;3.578;2024-01-15T09:03:19;19.10;48.50
59977;DHT22;45837;51.076;3.578;2024-01-15T09:05:45;19.10;48.70
59977;DHT22;45837;51.076;3.578;2024-01-15T09:08:11;19.10;48.60
59977;DHT22;45837;51.076;3.578;2024-01-15T09:10:37;19.10;49.00
59977;DHT22;45837;51.076;3.578;2024-01-15T09:13:03;19.10;49.10
59977;DHT22;45837;51.076;3.578;2024-01-15T09:15:30;19.10;48.90
59977;DHT22;45837;51.076;3.578;2024-01-15T09:17:56;19.10;49.20
59977;DHT22;45837;51.076;3.578;2024-01-15T09:20:24;19.10;48.70
59977;DHT22;45837;51.076;3.578;2024-01-15T09:22:51;19.10;48.90
59977;DHT22;45837;51.076;3.578;2024-01-15T09:25:17;19.10;49.30
59977;DHT22;45837;51.076;3.578;2024-01-15T09:27:44;19.10;49.10
59977;DHT22;45837;51.076;3.578;2024-01-15T09:30:10;19.10;49.70
59977;DHT22;45837;51.076;3.578;2024-01-15T09:32:37;19.10;49.10
59977;DHT22;45837;51.076;3.578;2024-01-15T09:35:03;19.10;49.20
59977;DHT22;45837;51.076;3.578;2024-01-15T09:37:29;19.10;49.30
59977;DHT22;45837;51.076;3.578;2024-01-15T09:39:55;19.10;49.10
59977;DHT22;45837;51.076;3.578;2024-01-15T09:42:23;19.00;48.90
59977;DHT22;45837;51.076;3.578;2024-01-15T09:44:51;19.00;48.70
59977;DHT22;45837;51.076;3.578;2024-01-15T09:47:18;19.00;48.70
59977;DHT22;45837;51.076;3.578;2024-01-15T09:49:44;19.00;48.70
59977;DHT22;45837;51.076;3.578;2024-01-15T09:52:11;19.00;49.20
59977;DHT22;45837;51.076;3.578;2024-01-15T09:54:37;19.00;49.10
59977;DHT22;45837;51.076;3.578;2024-01-15T09:57:04;19.00;49.00
59977;DHT22;45837;51.076;3.578;2024-01-15T09:59:31;19.10;49.30
59977;DHT22;45837;51.076;3.578;2024-01-15T10:01:58;19.20;49.00
59977;DHT22;45837;51.076;3.578;2024-01-15T10:04:25;19.10;48.80
59977;DHT22;45837;51.076;3.578;2024-01-15T10:06:51;19.20;49.20
59977;DHT22;45837;51.076;3.578;2024-01-15T10:09:18;19.20;48.70
59977;DHT22;45837;51.076;3.578;2024-01-15T10:11:44;19.30;48.90
59977;DHT22;45837;51.076;3.578;2024-01-15T10:14:11;19.40;48.90
59977;DHT22;45837;51.076;3.578;2024-01-15T10:16:40;19.50;49.30
59977;DHT22;45837;51.076;3.578;2024-01-15T10:19:08;19.50;48.60
59977;DHT22;45837;51.076;3.578;2024-01-15T10:21:34;19.60;48.50
59977;DHT22;45837;51.076;3.578;2024-01-15T10:24:01;19.70;48.40
59977;DHT22;45837;51.076;3.578;2024-01-15T10:26:28;19.70;48.30
59977;DHT22;45837;51.076;3.578;2024-01-15T10:28:54;19.80;48.50
59977;DHT22;45837;51.076;3.578;2024-01-15T10:31:20;19.90;48.60
59977;DHT22;45837;51.076;3.578;2024-01-15T10:33:50;19.90;48.30
59977;DHT22;45837;51.076;3.578;2024-01-15T10:36:17;19.90;48.00
59977;DHT22;45837;51.076;3.578;2024-01-15T10:38:44;20.00;48.00
59977;DHT22;45837;51.076;3.578;2024-01-15T10:41:10;20.10;47.80
59977;DHT22;45837;51.076;3.578;2024-01-15T10:43:39;20.10;47.70
59977;DHT22;45837;51.076;3.578;2024-01-15T10:46:07;20.10;47.50
59977;DHT22;45837;51.076;3.578;2024-01-15T10:48:33;20.20;47.70
59977;DHT22;45837;51.076;3.578;2024-01-15T10:51:01;20.20;47.80
59977;DHT22;45837;51.076;3.578;2024-01-15T10:53:38;20.30;47.50
59977;DHT22;45837;51.076;3.578;2024-01-15T10:56:06;20.30;47.50
59977;DHT22;45837;51.076;3.578;2024-01-15T10:58:34;20.40;47.60
59977;DHT22;45837;51.076;3.578;2024-01-15T11:01:02;20.40;47.50
59977;DHT22;45837;51.076;3.578;2024-01-15T11:03:28;20.50;47.40
59977;DHT22;45837;51.076;3.578;2024-01-15T11:05:54;20.50;47.30
59977;DHT22;45837;51.076;3.578;2024-01-15T11:08:20;20.50;47.60
59977;DHT22;45837;51.076;3.578;2024-01-15T11:10:48;20.50;48.20
59977;DHT22;45837;51.076;3.578;2024-01-15T11:16:09;20.60;48.70
59977;DHT22;45837;51.076;3.578;2024-01-15T11:19:02;20.60;48.90
59977;DHT22;45837;51.076;3.578;2024-01-15T11:21:29;20.70;49.00
59977;DHT22;45837;51.076;3.578;2024-01-15T11:24:01;20.70;48.70
59977;DHT22;45837;51.076;3.578;2024-01-15T11:26:43;20.70;48.80
59977;DHT22;45837;51.076;3.578;2024-01-15T11:29:29;20.70;48.70
59977;DHT22;45837;51.076;3.578;2024-01-15T11:34:21;20.70;49.10
59977;DHT22;45837;51.076;3.578;2024-01-15T11:37:07;20.70;48.40
59977;DHT22;45837;51.076;3.578;2024-01-15T11:42:00;20.80;48.60
59977;DHT22;45837;51.076;3.578;2024-01-15T11:44:27;20.80;48.30
59977;DHT22;45837;51.076;3.578;2024-01-15T11:52:01;20.80;48.10
59977;DHT22;45837;51.076;3.578;2024-01-15T11:54:32;20.80;48.70
59977;DHT22;45837;51.076;3.578;2024-01-15T11:57:02;20.80;48.20
59977;DHT22;45837;51.076;3.578;2024-01-15T11:59:29;20.80;48.20
59977;DHT22;45837;51.076;3.578;2024-01-15T12:01:56;20.80;48.50
59977;DHT22;45837;51.076;3.578;2024-01-15T12:04:23;20.80;48.20
59977;DHT22;45837;51.076;3.578;2024-01-15T12:06:49;20.70;48.30
59977;DHT22;45837;51.076;3.578;2024-01-15T12:09:18;20.80;48.40
59977;DHT22;45837;51.076;3.578;2024-01-15T12:11:50;20.80;48.20
59977;DHT22;45837;51.076;3.578;2024-01-15T12:14:16;20.80;48.50
59977;DHT22;45837;51.076;3.578;2024-01-15T12:16:42;20.70;48.60
59977;DHT22;45837;51.076;3.578;2024-01-15T12:19:09;20.70;48.50
59977;DHT22;45837;51.076;3.578;2024-01-15T12:21:34;20.70;48.70
59977;DHT22;45837;51.076;3.578;2024-01-15T12:24:00;20.70;48.60
59977;DHT22;45837;51.076;3.578;2024-01-15T12:26:26;20.70;48.90
59977;DHT22;45837;51.076;3.578;2024-01-15T12:28:52;20.70;49.10
59977;DHT22;45837;51.076;3.578;2024-01-15T12:31:19;20.70;49.10
59977;DHT22;45837;51.076;3.578;2024-01-15T12:33:45;20.70;49.30
59977;DHT22;45837;51.076;3.578;2024-01-15T12:36:13;20.70;49.10
59977;DHT22;45837;51.076;3.578;2024-01-15T12:38:39;20.80;49.10
59977;DHT22;45837;51.076;3.578;2024-01-15T12:41:04;20.80;49.30
59977;DHT22;45837;51.076;3.578;2024-01-15T12:43:31;20.80;49.20
59977;DHT22;45837;51.076;3.578;2024-01-15T12:45:56;20.90;49.30
59977;DHT22;45837;51.076;3.578;2024-01-15T12:48:22;20.90;49.60
59977;DHT22;45837;51.076;3.578;2024-01-15T12:50:48;20.90;49.10
59977;DHT22;45837;51.076;3.578;2024-01-15T12:53:15;20.90;49.10
59977;DHT22;45837;51.076;3.578;2024-01-15T12:55:41;20.90;49.20
59977;DHT22;45837;51.076;3.578;2024-01-15T12:58:07;20.90;49.40
59977;DHT22;45837;51.076;3.578;2024-01-15T13:00:32;20.90;49.40
59977;DHT22;45837;51.076;3.578;2024-01-15T13:02:58;20.90;49.20
59977;DHT22;45837;51.076;3.578;2024-01-15T13:05:26;20.90;49.20
59977;DHT22;45837;51.076;3.578;2024-01-15T13:07:53;20.80;48.70
59977;DHT22;45837;51.076;3.578;2024-01-15T13:10:18;20.80;47.40
59977;DHT22;45837;51.076;3.578;2024-01-15T13:12:45;20.80;44.10
59977;DHT22;45837;51.076;3.578;2024-01-15T13:15:11;20.70;42.50
59977;DHT22;45837;51.076;3.578;2024-01-15T13:17:38;20.60;42.90
59977;DHT22;45837;51.076;3.578;2024-01-15T13:20:06;20.50;42.40
59977;DHT22;45837;51.076;3.578;2024-01-15T13:22:32;20.50;42.40
59977;DHT22;45837;51.076;3.578;2024-01-15T13:24:58;20.40;42.30
59977;DHT22;45837;51.076;3.578;2024-01-15T13:27:24;20.40;42.80
59977;DHT22;45837;51.076;3.578;2024-01-15T13:29:50;20.40;42.50
59977;DHT22;45837;51.076;3.578;2024-01-15T13:32:22;20.40;42.60
59977;DHT22;45837;51.076;3.578;2024-01-15T13:34:49;20.40;42.30
59977;DHT22;45837;51.076;3.578;2024-01-15T13:37:15;20.40;43.00
59977;DHT22;45837;51.076;3.578;2024-01-15T13:39:41;20.40;42.10
59977;DHT22;45837;51.076;3.578;2024-01-15T13:42:06;19.70;42.50
59977;DHT22;45837;51.076;3.578;2024-01-15T13:44:32;20.30;43.80
59977;DHT22;45837;51.076;3.578;2024-01-15T13:46:58;20.30;44.50
59977;DHT22;45837;51.076;3.578;2024-01-15T13:49:24;20.30;44.80
59977;DHT22;45837;51.076;3.578;2024-01-15T13:51:50;20.40;44.50
59977;DHT22;45837;51.076;3.578;2024-01-15T13:54:16;20.40;45.10
59977;DHT22;45837;51.076;3.578;2024-01-15T13:56:42;20.30;45.30
59977;DHT22;45837;51.076;3.578;2024-01-15T13:59:08;20.40;45.20
59977;DHT22;45837;51.076;3.578;2024-01-15T14:01:35;20.40;45.60
59977;DHT22;45837;51.076;3.578;2024-01-15T14:04:03;20.40;45.40
59977;DHT22;45837;51.076;3.578;2024-01-15T14:06:29;20.40;45.80
59977;DHT22;45837;51.076;3.578;2024-01-15T14:08:54;20.50;45.80
59977;DHT22;45837;51.076;3.578;2024-01-15T14:11:20;20.50;46.00
59977;DHT22;45837;51.076;3.578;2024-01-15T14:13:46;20.50;46.10
59977;DHT22;45837;51.076;3.578;2024-01-15T14:16:13;20.50;45.80
59977;DHT22;45837;51.076;3.578;2024-01-15T14:18:39;20.60;46.30
59977;DHT22;45837;51.076;3.578;2024-01-15T14:21:05;20.60;46.30
59977;DHT22;45837;51.076;3.578;2024-01-15T14:23:30;20.60;46.60
59977;DHT22;45837;51.076;3.578;2024-01-15T14:25:57;20.60;45.90
59977;DHT22;45837;51.076;3.578;2024-01-15T14:28:23;20.70;46.50
59977;DHT22;45837;51.076;3.578;2024-01-15T14:30:49;20.70;46.50
59977;DHT22;45837;51.076;3.578;2024-01-15T14:33:15;20.70;46.70
59977;DHT22;45837;51.076;3.578;2024-01-15T14:35:40;20.70;46.70
59977;DHT22;45837;51.076;3.578;2024-01-15T14:38:06;19.70;46.10
59977;DHT22;45837;51.076;3.578;2024-01-15T14:40:34;20.70;46.50
59977;DHT22;45837;51.076;3.578;2024-01-15T14:43:00;20.70;46.50
59977;DHT22;45837;51.076;3.578;2024-01-15T14:45:26;20.70;46.70
59977;DHT22;45837;51.076;3.578;2024-01-15T14:47:52;20.70;46.30
59977;DHT22;45837;51.076;3.578;2024-01-15T14:50:18;20.70;45.80
59977;DHT22;45837;51.076;3.578;2024-01-15T14:52:45;20.70;45.70
59977;DHT22;45837;51.076;3.578;2024-01-15T14:55:11;20.70;46.00
59977;DHT22;45837;51.076;3.578;2024-01-15T14:57:38;20.70;46.30
59977;DHT22;45837;51.076;3.578;2024-01-15T15:00:06;20.70;46.20
59977;DHT22;45837;51.076;3.578;2024-01-15T15:02:35;20.70;46.50
59977;DHT22;45837;51.076;3.578;2024-01-15T15:05:03;20.70;46.40
59977;DHT22;45837;51.076;3.578;2024-01-15T15:07:29;20.70;46.50
59977;DHT22;45837;51.076;3.578;2024-01-15T15:09:55;20.80;47.10
59977;DHT22;45837;51.076;3.578;2024-01-15T15:12:21;20.80;46.80
59977;DHT22;45837;51.076;3.578;2024-01-15T15:14:46;20.80;47.60
59977;DHT22;45837;51.076;3.578;2024-01-15T15:17:13;20.80;46.90
59977;DHT22;45837;51.076;3.578;2024-01-15T15:19:39;20.70;46.10
59977;DHT22;45837;51.076;3.578;2024-01-15T15:22:07;20.70;46.10
59977;DHT22;45837;51.076;3.578;2024-01-15T15:24:37;20.70;46.00
59977;DHT22;45837;51.076;3.578;2024-01-15T15:27:03;20.60;46.00
59977;DHT22;45837;51.076;3.578;2024-01-15T15:29:31;20.60;45.90
59977;DHT22;45837;51.076;3.578;2024-01-15T15:31:57;20.60;46.00
59977;DHT22;45837;51.076;3.578;2024-01-15T15:34:23;20.60;46.10
59977;DHT22;45837;51.076;3.578;2024-01-15T15:36:49;20.50;46.20